Time;durP1;ratioP1;P1;durP2;ratioP2;P2;SDS_P1;SDS_P2;PMS_P1;PMS_P2;Temp;Humidity;BMP_temperature;BMP_pressure;BME280_temperature;BME280_humidity;BME280_pressure;Samples;Min_cycle;Max_cycle;Signal;HPM_P1;HPM_P2
2021/03/11 00:01:30;;;;;;;17.40;10.50;;;;;;;-3.42;52.81;101494.58;1805527;77;21614;-59
2021/03/11 00:03:58;;;;;;;23.20;12.05;;;;;;;-3.45;52.77;101498.00;1818766;78;21637;-59
2021/03/11 00:06:25;;;;;;;19.30;10.58;;;;;;;-3.45;52.69;101494.58;1780559;78;21116;-59
2021/03/11 00:08:54;;;;;;;18.80;9.95;;;;;;;-3.45;52.69;101494.58;1805665;78;21607;-59
2021/03/11 00:11:21;;;;;;;16.40;8.95;;;;;;;-3.47;52.67;101500.17;1800886;78;21582;-59
2021/03/11 00:13:49;;;;;;;16.52;8.88;;;;;;;-3.52;52.71;101495.04;1780379;78;21105;-59
2021/03/11 00:16:16;;;;;;;27.75;10.72;;;;;;;-3.56;52.74;101499.34;1782654;79;21206;-60
2021/03/11 00:18:45;;;;;;;18.87;8.58;;;;;;;-3.57;53.05;101506.62;1783392;78;21119;-59
2021/03/11 00:21:12;;;;;;;19.15;10.55;;;;;;;-3.61;53.12;101510.09;1757119;79;21481;-59
2021/03/11 00:23:40;;;;;;;16.97;10.68;;;;;;;-3.61;53.16;101505.38;1772787;78;21164;-60
2021/03/11 00:26:07;;;;;;;19.37;10.03;;;;;;;-3.64;53.19;101503.66;1785899;78;21108;-60
2021/03/11 00:28:34;;;;;;;19.23;9.33;;;;;;;-3.66;53.03;101504.09;1787357;77;21168;-60
2021/03/11 00:31:01;;;;;;;17.52;8.73;;;;;;;-3.71;52.91;101501.97;1779828;79;21223;-60
2021/03/11 00:33:29;;;;;;;19.98;10.95;;;;;;;-3.80;53.08;101501.58;1772685;80;21196;-60
2021/03/11 00:35:57;;;;;;;16.05;9.60;;;;;;;-3.81;53.24;101493.86;1786711;78;21109;-60
2021/03/11 00:38:24;;;;;;;21.50;10.05;;;;;;;-3.83;53.28;101496.84;1804873;78;21630;-60
2021/03/11 00:40:52;;;;;;;19.92;10.40;;;;;;;-3.84;53.45;101499.86;1780051;80;22622;-60
2021/03/11 00:43:20;;;;;;;18.20;10.03;;;;;;;-3.80;53.33;101491.70;1789501;78;21211;-60
2021/03/11 00:45:49;;;;;;;18.27;10.40;;;;;;;-3.79;53.29;101490.85;1803207;78;21422;-59
2021/03/11 00:48:17;;;;;;;15.48;9.33;;;;;;;-3.82;53.27;101496.00;1781616;78;21154;-60
2021/03/11 00:50:45;;;;;;;17.55;10.25;;;;;;;-3.83;53.38;101487.84;1808040;78;21096;-60
2021/03/11 00:53:13;;;;;;;17.35;10.53;;;;;;;-3.83;53.38;101486.15;1803441;77;21202;-59
2021/03/11 00:55:41;;;;;;;21.25;9.30;;;;;;;-3.86;53.53;101485.31;1784081;78;21588;-59
2021/03/11 00:58:09;;;;;;;16.50;8.80;;;;;;;-3.89;53.69;101478.44;1763480;78;21164;-60
2021/03/11 01:00:37;;;;;;;15.32;10.08;;;;;;;-3.88;53.79;101474.14;1754696;79;21218;-58
2021/03/11 01:03:16;;;;;;;20.02;10.48;;;;;;;-3.88;53.84;101468.59;1794976;78;22804;-59
2021/03/11 01:05:45;;;;;;;15.93;9.35;;;;;;;-3.93;53.92;101466.02;1767534;80;21177;-59
2021/03/11 01:08:15;;;;;;;16.62;9.60;;;;;;;-3.92;53.94;101465.18;1771660;80;21225;-60
2021/03/11 01:10:42;;;;;;;16.17;9.48;;;;;;;-3.91;53.88;101462.17;1766385;79;21164;-59
2021/03/11 01:13:10;;;;;;;15.95;9.28;;;;;;;-3.88;53.75;101467.72;1771259;80;21664;-59
2021/03/11 01:15:43;;;;;;;18.40;10.48;;;;;;;-3.88;53.51;101460.87;1769426;79;21219;-59
2021/03/11 01:18:12;;;;;;;16.02;9.20;;;;;;;-3.89;53.35;101463.45;1738885;81;21181;-59
2021/03/11 01:20:41;;;;;;;15.50;9.53;;;;;;;-3.94;53.40;101456.59;1715868;83;21407;-59
2021/03/11 01:23:09;;;;;;;15.85;9.13;;;;;;;-3.98;53.50;101458.75;1718975;81;21156;-59
2021/03/11 01:25:36;;;;;;;12.58;8.08;;;;;;;-4.01;53.78;101457.47;1706955;81;21178;-59
2021/03/11 01:28:05;;;;;;;13.88;7.87;;;;;;;-4.00;53.89;101459.20;1703748;82;21631;-59
2021/03/11 01:30:32;;;;;;;17.95;8.28;;;;;;;-4.01;53.99;101457.47;1719098;81;21222;-59
2021/03/11 01:33:00;;;;;;;14.00;7.20;;;;;;;-4.03;54.14;101460.48;1717420;81;21407;-59
2021/03/11 01:35:30;;;;;;;18.45;9.58;;;;;;;-4.04;54.17;101461.33;1720678;82;21195;-59
2021/03/11 01:37:57;;;;;;;14.30;8.48;;;;;;;-4.06;54.22;101456.63;1709902;83;21160;-59
2021/03/11 01:40:25;;;;;;;19.07;8.65;;;;;;;-4.10;54.28;101461.37;1708308;81;21212;-59
2021/03/11 01:42:53;;;;;;;13.62;6.85;;;;;;;-4.13;54.30;101462.66;1733760;81;21188;-59
2021/03/11 01:45:21;;;;;;;16.70;9.03;;;;;;;-4.18;54.42;101460.08;1737243;81;21701;-59
2021/03/11 01:47:50;;;;;;;16.55;8.45;;;;;;;-4.20;54.43;101455.38;1709296;83;21251;-59
2021/03/11 01:50:17;;;;;;;13.03;6.90;;;;;;;-4.19;54.44;101458.80;1737568;81;21204;-59
2021/03/11 01:52:45;;;;;;;11.65;7.17;;;;;;;-4.17;54.37;101462.22;1701281;83;21208;-59
2021/03/11 01:55:14;;;;;;;14.15;8.45;;;;;;;-4.17;54.23;101462.22;1685626;82;21564;-59
2021/03/11 01:57:41;;;;;;;16.20;7.90;;;;;;;-4.19;54.17;101466.51;1717680;82;21214;-59
2021/03/11 02:00:11;;;;;;;13.08;8.23;;;;;;;-4.20;54.16;101469.92;1722303;82;21223;-59
2021/03/11 02:02:44;;;;;;;13.98;6.53;;;;;;;-4.23;54.09;101473.81;1710267;82;21212;-58
2021/03/11 02:05:15;;;;;;;14.40;7.22;;;;;;;-4.31;54.17;101473.81;1694216;83;21188;-59
2021/03/11 02:07:43;;;;;;;14.93;6.62;;;;;;;-4.36;54.27;101479.38;1701053;83;21485;-59
2021/03/11 02:10:14;;;;;;;10.20;6.15;;;;;;;-4.38;54.18;101478.53;1740976;80;21156;-59
2021/03/11 02:16:14;;;;;;;12.93;7.25;;;;;;;-4.38;54.30;101484.52;1638896;85;21194;-59
2021/03/11 02:19:29;;;;;;;13.18;6.90;;;;;;;-4.33;54.45;101483.23;1638197;85;21152;-59
2021/03/11 02:22:08;;;;;;;12.82;7.00;;;;;;;-4.32;54.35;101486.22;1634358;85;21204;-59
2021/03/11 02:24:54;;;;;;;14.00;7.28;;;;;;;-4.35;54.42;101487.09;1760131;79;22799;-59
2021/03/11 02:27:48;;;;;;;12.23;7.70;;;;;;;-4.40;54.42;101487.52;1683788;82;21180;-59
2021/03/11 02:30:16;;;;;;;10.82;6.92;;;;;;;-4.41;54.60;101485.80;1734390;82;21218;-59
2021/03/11 02:32:45;;;;;;;17.17;7.35;;;;;;;-4.44;54.83;101490.94;1723673;81;21200;-59
2021/03/11 02:35:13;;;;;;;12.75;7.33;;;;;;;-4.44;54.89;101487.52;1682838;82;21631;-59
2021/03/11 02:37:48;;;;;;;10.53;6.62;;;;;;;-4.40;54.92;101493.11;1698067;82;21188;-59
2021/03/11 02:40:20;;;;;;;14.03;7.10;;;;;;;-4.41;54.83;101490.94;1727957;82;21152;-58
2021/03/11 02:42:49;;;;;;;12.95;6.92;;;;;;;-4.46;54.83;101492.66;1732955;82;21262;-58
2021/03/11 02:45:22;;;;;;;11.30;6.75;;;;;;;-4.48;54.86;101495.66;1728958;82;21112;-58
2021/03/11 02:47:50;;;;;;;15.98;6.22;;;;;;;-4.49;54.86;101492.25;1730503;82;21149;-58
2021/03/11 02:50:19;;;;;;;12.23;6.40;;;;;;;-4.46;54.74;101489.23;1701514;82;21235;-58
2021/03/11 02:52:46;;;;;;;11.88;6.47;;;;;;;-4.45;54.73;101487.95;1731728;82;21160;-58
2021/03/11 02:55:16;;;;;;;12.85;7.05;;;;;;;-4.41;54.68;101485.80;1733011;82;22888;-58
2021/03/11 02:57:44;;;;;;;12.73;6.42;;;;;;;-4.36;54.48;101489.22;1720644;82;21176;-58
2021/03/11 03:00:13;;;;;;;10.68;6.45;;;;;;;-4.32;54.28;101488.78;1732458;82;21196;-58
2021/03/11 03:02:43;;;;;;;10.95;6.08;;;;;;;-4.31;54.24;101490.08;1729926;82;21192;-58
2021/03/11 03:05:15;;;;;;;12.68;6.92;;;;;;;-4.32;54.35;101496.09;1731985;82;21171;-58
2021/03/11 03:07:45;;;;;;;11.35;6.50;;;;;;;-4.32;54.28;101494.80;1724274;82;21278;-58
2021/03/11 03:10:18;;;;;;;13.48;6.55;;;;;;;-4.32;54.20;101496.09;1726844;82;21212;-58
2021/03/11 03:12:48;;;;;;;13.28;6.35;;;;;;;-4.32;54.24;101494.80;1732529;82;21216;-59
2021/03/11 03:15:16;;;;;;;14.87;7.85;;;;;;;-4.32;54.19;101494.80;1729643;82;21864;-58
2021/03/11 03:17:47;;;;;;;13.08;5.92;;;;;;;-4.32;54.16;101490.08;1726512;82;21599;-59
2021/03/11 03:20:17;;;;;;;11.60;6.70;;;;;;;-4.30;54.25;101489.23;1734802;80;21206;-58
2021/03/11 03:22:45;;;;;;;11.20;6.70;;;;;;;-4.31;54.02;101486.22;1731373;82;21236;-59
2021/03/11 03:25:13;;;;;;;12.78;7.05;;;;;;;-4.32;53.88;101485.81;1684743;82;21133;-59
2021/03/11 03:27:41;;;;;;;15.68;7.83;;;;;;;-4.37;53.85;101488.81;1717815;82;21188;-58
2021/03/11 03:30:14;;;;;;;11.68;6.85;;;;;;;-4.41;53.95;101497.36;1719158;82;21750;-59
2021/03/11 03:32:41;;;;;;;12.65;7.15;;;;;;;-4.42;54.03;101499.93;1717983;82;21202;-60
2021/03/11 03:35:10;;;;;;;14.65;7.50;;;;;;;-4.49;54.15;101496.50;1713477;82;21711;-59
2021/03/11 03:37:38;;;;;;;12.73;7.62;;;;;;;-4.53;54.28;101495.66;1719741;82;21117;-59
2021/03/11 03:40:09;;;;;;;13.45;6.95;;;;;;;-4.54;54.24;101496.94;1718826;82;21197;-59
2021/03/11 03:42:43;;;;;;;12.93;7.67;;;;;;;-4.55;54.13;101492.67;1716116;82;21177;-59
2021/03/11 03:45:12;;;;;;;13.58;7.35;;;;;;;-4.57;54.23;101493.08;1718014;82;21195;-59
2021/03/11 03:47:42;;;;;;;15.13;6.83;;;;;;;-4.57;54.29;101491.79;1698085;82;21180;-59
2021/03/11 03:50:10;;;;;;;16.25;7.45;;;;;;;-4.60;54.33;101498.23;1694878;82;21212;-59
2021/03/11 03:52:40;;;;;;;14.38;8.03;;;;;;;-4.66;54.24;101500.35;1715421;82;21189;-59
2021/03/11 03:55:09;;;;;;;16.75;8.83;;;;;;;-4.69;54.21;101501.22;1716017;82;21188;-59
2021/03/11 03:57:38;;;;;;;12.90;6.78;;;;;;;-4.70;54.15;101497.37;1702121;82;21427;-59
2021/03/11 04:00:09;;;;;;;14.15;6.92;;;;;;;-4.70;54.14;101502.06;1711772;82;21679;-58
2021/03/11 04:02:38;;;;;;;14.25;7.62;;;;;;;-4.70;54.17;101498.22;1699841;82;21238;-59
2021/03/11 04:05:07;;;;;;;17.10;8.40;;;;;;;-4.73;54.43;101499.48;1696632;82;21200;-59
2021/03/11 04:07:35;;;;;;;14.30;7.30;;;;;;;-4.73;54.53;101496.92;1708394;82;21188;-59
2021/03/11 04:10:06;;;;;;;14.30;6.78;;;;;;;-4.70;54.58;101501.22;1714933;82;21860;-59
2021/03/11 04:12:34;;;;;;;14.47;7.22;;;;;;;-4.69;54.60;101504.20;1695226;82;21252;-59
2021/03/11 04:15:05;;;;;;;16.60;7.50;;;;;;;-4.68;54.63;101506.77;1667798;82;21189;-59
2021/03/11 04:17:33;;;;;;;11.75;7.03;;;;;;;-4.68;54.47;101509.34;1695430;82;21152;-58
2021/03/11 04:20:05;;;;;;;12.70;6.92;;;;;;;-4.67;54.42;101507.65;1717760;81;21110;-58
2021/03/11 04:22:33;;;;;;;13.72;7.17;;;;;;;-4.68;54.42;101509.34;1715680;82;21371;-58
2021/03/11 04:25:01;;;;;;;13.78;6.58;;;;;;;-4.65;54.42;101508.94;1726404;81;21207;-59
2021/03/11 04:27:28;;;;;;;12.63;6.47;;;;;;;-4.64;54.27;101514.48;1704092;82;21224;-59
2021/03/11 04:29:56;;;;;;;20.60;7.37;;;;;;;-4.67;54.23;101512.34;1729652;82;21191;-59
2021/03/11 04:32:25;;;;;;;14.38;6.87;;;;;;;-4.66;54.19;101519.62;1701909;82;21600;-59
2021/03/11 04:34:52;;;;;;;15.63;7.25;;;;;;;-4.64;54.07;101519.19;1706435;82;21350;-58
2021/03/11 04:37:20;;;;;;;18.17;7.65;;;;;;;-4.65;53.88;101516.64;1729959;82;21152;-58
2021/03/11 04:39:47;;;;;;;14.58;7.60;;;;;;;-4.68;53.95;101514.48;1731902;82;21184;-59
2021/03/11 04:42:15;;;;;;;15.32;7.22;;;;;;;-4.63;53.79;101517.50;1732623;82;21136;-59
2021/03/11 04:44:43;;;;;;;13.55;7.40;;;;;;;-4.62;53.60;101515.33;1702270;80;21220;-59
2021/03/11 04:47:11;;;;;;;17.12;7.40;;;;;;;-4.64;53.64;101516.61;1700692;82;21184;-59
2021/03/11 04:49:39;;;;;;;17.73;7.75;;;;;;;-4.64;53.69;101512.77;1698570;82;21211;-60
2021/03/11 04:52:08;;;;;;;11.48;6.90;;;;;;;-4.65;53.62;101512.35;1704260;82;21199;-59
2021/03/11 04:54:37;;;;;;;13.75;7.33;;;;;;;-4.67;53.61;101506.36;1728538;82;21207;-59
2021/03/11 04:57:27;;;;;;;15.32;8.80;;;;;;;-4.71;53.67;101508.08;1729696;82;21141;-60
2021/03/11 04:59:59;;;;;;;13.95;8.18;;;;;;;-4.73;53.79;101505.06;1719659;81;22462;-57
2021/03/11 05:02:27;;;;;;;14.53;7.78;;;;;;;-4.77;53.85;101508.50;1665937;84;21894;-59
2021/03/11 05:04:54;;;;;;;13.75;8.28;;;;;;;-4.77;53.96;101513.63;1637495;84;21198;-59
2021/03/11 05:07:21;;;;;;;16.50;8.10;;;;;;;-4.77;54.04;101518.77;1635053;86;21661;-58
2021/03/11 05:09:50;;;;;;;13.80;8.35;;;;;;;-4.77;54.17;101519.62;1637359;86;21218;-59
2021/03/11 05:12:18;;;;;;;12.55;7.10;;;;;;;-4.75;54.27;101526.89;1662871;85;21653;-58
2021/03/11 05:14:46;;;;;;;15.30;7.58;;;;;;;-4.73;54.22;101523.89;1609794;87;21174;-58
2021/03/11 05:17:14;;;;;;;14.58;6.78;;;;;;;-4.73;54.22;101525.17;1629082;86;21240;-58
2021/03/11 05:19:42;;;;;;;15.15;7.87;;;;;;;-4.69;54.20;101528.19;1656252;84;21231;-58
2021/03/11 05:22:10;;;;;;;16.77;8.78;;;;;;;-4.60;54.16;101526.49;1643348;86;21223;-58
2021/03/11 05:24:37;;;;;;;16.75;9.48;;;;;;;-4.54;54.16;101527.36;1664386;84;21279;-58
2021/03/11 05:27:08;;;;;;;15.13;8.73;;;;;;;-4.49;54.15;101530.78;1636562;86;21323;-58
2021/03/11 05:29:36;;;;;;;14.95;7.37;;;;;;;-4.44;54.02;101532.05;1645572;84;21234;-58
2021/03/11 05:32:05;;;;;;;18.57;10.00;;;;;;;-4.40;54.14;101532.49;1645331;86;21209;-58
2021/03/11 05:34:33;;;;;;;21.57;9.20;;;;;;;-4.31;54.15;101528.63;1651586;85;21144;-59
2021/03/11 05:37:01;;;;;;;17.50;9.68;;;;;;;-4.24;54.20;101538.91;1636608;86;21248;-58
2021/03/11 05:39:29;;;;;;;19.77;10.58;;;;;;;-4.20;54.26;101540.20;1660664;84;21202;-58
2021/03/11 05:41:57;;;;;;;18.05;9.83;;;;;;;-4.17;54.42;101544.47;1666307;84;21254;-59
2021/03/11 05:44:24;;;;;;;21.42;10.40;;;;;;;-4.12;54.61;101553.03;1639468;85;21234;-57
2021/03/11 05:46:52;;;;;;;18.73;9.58;;;;;;;-4.05;54.75;101544.48;1662623;85;21641;-59
2021/03/11 05:49:19;;;;;;;18.62;10.25;;;;;;;-3.96;54.84;101548.31;1638479;86;21399;-59
2021/03/11 05:51:47;;;;;;;16.73;8.68;;;;;;;-3.84;54.93;101547.88;1666369;84;21242;-58
2021/03/11 05:54:14;;;;;;;20.23;11.20;;;;;;;-3.78;55.12;101544.86;1619323;86;21270;-58
2021/03/11 05:56:42;;;;;;;27.10;11.35;;;;;;;-3.68;55.34;101541.84;1646547;86;21211;-59
2021/03/11 05:59:10;;;;;;;19.25;10.13;;;;;;;-3.58;55.56;101536.22;1666907;84;21213;-58
2021/03/11 06:01:37;;;;;;;17.30;10.08;;;;;;;-3.48;55.74;101542.20;1660868;84;22834;-59
2021/03/11 06:04:06;;;;;;;29.57;11.10;;;;;;;-3.36;55.80;101549.89;1657163;84;21240;-59
2021/03/11 06:06:34;;;;;;;18.52;10.08;;;;;;;-3.27;55.72;101545.14;1660776;84;21204;-59
2021/03/11 06:09:02;;;;;;;15.78;9.65;;;;;;;-3.17;55.95;101557.10;1680097;84;21230;-57
2021/03/11 06:11:29;;;;;;;19.12;11.70;;;;;;;-3.03;55.93;101549.30;1637133;85;21701;-57
2021/03/11 06:13:57;;;;;;;17.90;11.15;;;;;;;-2.93;56.03;101551.41;1658104;84;21245;-57
2021/03/11 06:16:26;;;;;;;14.35;8.23;;;;;;;-2.78;56.12;101549.18;1703948;82;21160;-59
2021/03/11 06:18:53;;;;;;;12.95;8.05;;;;;;;-2.59;55.91;101554.62;1701356;83;22740;-60
2021/03/11 06:21:21;;;;;;;13.75;8.55;;;;;;;-2.47;55.50;101563.58;1708384;83;21199;-60
2021/03/11 06:23:49;;;;;;;15.88;7.72;;;;;;;-2.32;55.33;101563.02;1698086;84;21203;-60
2021/03/11 06:26:16;;;;;;;19.07;7.83;;;;;;;-2.17;55.06;101559.06;1625479;86;21240;-60
2021/03/11 06:28:51;;;;;;;14.00;7.37;;;;;;;-2.02;54.84;101566.22;1722895;82;21204;-60
2021/03/11 06:31:26;;;;;;;16.27;7.45;;;;;;;-1.90;54.38;101560.53;1701735;83;21184;-61
2021/03/11 06:33:56;;;;;;;11.12;7.10;;;;;;;-1.78;53.94;101558.27;1672970;83;21235;-60
2021/03/11 06:36:26;;;;;;;11.45;7.00;;;;;;;-1.64;53.64;101562.43;1701993;83;21199;-60
2021/03/11 06:38:57;;;;;;;18.37;7.67;;;;;;;-1.58;53.60;101558.06;1650283;84;21245;-61
2021/03/11 06:41:24;;;;;;;13.30;6.85;;;;;;;-1.47;53.45;101551.47;1657008;85;21239;-61
2021/03/11 06:44:01;;;;;;;15.43;8.23;;;;;;;-1.36;53.05;101559.95;1643333;85;21227;-58
2021/03/11 06:46:29;;;;;;;15.88;8.40;;;;;;;-1.29;52.75;101563.33;1654637;84;21244;-60
2021/03/11 06:49:11;;;;;;;17.98;8.63;;;;;;;-1.21;52.52;101565.38;1663060;84;21259;-60
2021/03/11 06:51:39;;;;;;;12.25;8.33;;;;;;;-1.16;52.41;101563.59;1692244;82;21400;-60
2021/03/11 06:54:08;;;;;;;14.85;8.00;;;;;;;-1.07;52.46;101568.23;1611771;86;21290;-59
2021/03/11 06:56:42;;;;;;;11.55;6.67;;;;;;;-1.01;52.28;101560.38;1693715;83;21532;-67
2021/03/11 06:59:10;;;;;;;11.93;6.45;;;;;;;-0.90;52.01;101561.55;1696761;83;21145;-60
2021/03/11 07:01:49;;;;;;;14.98;8.68;;;;;;;-0.81;51.82;101560.99;1697041;82;21152;-59
2021/03/11 07:04:23;;;;;;;10.53;5.25;;;;;;;-0.73;51.56;101567.78;1694649;82;22219;-66
2021/03/11 07:06:52;;;;;;;11.25;6.62;;;;;;;-0.69;51.25;101566.42;1689330;84;21152;-62
2021/03/11 07:09:19;;;;;;;14.98;6.50;;;;;;;-0.57;51.01;101573.99;1692485;84;21641;-62
2021/03/11 07:11:53;;;;;;;14.50;7.30;;;;;;;-0.41;50.45;101572.47;1695272;83;21227;-63
2021/03/11 07:14:28;;;;;;;14.28;6.67;;;;;;;-0.30;50.24;101569.28;1693144;83;21181;-65
2021/03/11 07:17:19;;;;;;;10.48;5.40;;;;;;;-0.20;50.16;101573.42;1648240;85;21623;-65
2021/03/11 07:20:10;;;;;;;13.55;5.70;;;;;;;-0.08;50.00;101572.82;1684793;83;21208;-65
2021/03/11 07:22:41;;;;;;;11.18;5.90;;;;;;;0.04;49.94;101576.48;1692062;84;21698;-66
2021/03/11 07:25:30;;;;;;;9.75;4.40;;;;;;;0.14;49.73;101575.44;1689522;84;21231;-69
2021/03/11 07:28:00;;;;;;;7.33;4.55;;;;;;;0.23;49.07;101576.16;1692283;84;21220;-66
2021/03/11 07:30:31;;;;;;;9.80;5.58;;;;;;;0.30;48.49;101569.56;1666698;84;21192;-67
2021/03/11 07:33:02;;;;;;;10.45;5.15;;;;;;;0.33;48.39;101571.22;1687776;83;21156;-67
2021/03/11 07:35:32;;;;;;;8.13;4.15;;;;;;;0.37;48.41;101574.19;1689699;83;21240;-68
2021/03/11 07:38:02;;;;;;;13.13;4.85;;;;;;;0.43;48.32;101575.34;1693493;82;21152;-68
2021/03/11 07:40:33;;;;;;;8.35;4.15;;;;;;;0.52;48.19;101578.20;1627390;86;21227;-68
2021/03/11 07:43:03;;;;;;;7.40;4.05;;;;;;;0.57;47.68;101572.94;1673050;84;21224;-72
2021/03/11 07:45:34;;;;;;;7.22;4.15;;;;;;;0.61;47.57;101574.61;1669344;82;21623;-72
2021/03/11 07:48:05;;;;;;;7.45;4.40;;;;;;;0.69;47.43;101576.16;1693688;82;21137;-73
2021/03/11 07:50:33;;;;;;;10.25;3.85;;;;;;;0.77;46.98;101579.87;1691265;82;21180;-77
2021/03/11 07:53:04;;;;;;;8.98;4.45;;;;;;;0.84;46.74;101574.12;1706394;82;21113;-77
2021/03/11 07:55:34;;;;;;;8.20;4.33;;;;;;;0.92;45.79;101580.00;1702640;82;21275;-74
2021/03/11 07:58:08;;;;;;;7.83;3.27;;;;;;;0.92;45.34;101571.81;1692846;82;21200;-74
2021/03/11 08:00:37;;;;;;;9.85;3.90;;;;;;;1.02;45.33;101575.03;1702562;82;21242;-73
2021/03/11 08:03:14;;;;;;;8.88;4.47;;;;;;;1.15;44.76;101569.16;1682204;82;21183;-74
2021/03/11 08:05:42;;;;;;;8.90;4.20;;;;;;;1.19;43.96;101576.42;1701483;82;21205;-70
2021/03/11 08:08:21;;;;;;;9.23;3.60;;;;;;;1.24;43.48;101574.58;1703024;82;21265;-67
2021/03/11 08:10:52;;;;;;;9.60;4.33;;;;;;;1.30;43.33;101568.81;1705183;82;21618;-67
2021/03/11 08:13:35;;;;;;;10.30;3.75;;;;;;;1.36;43.17;101568.26;1704910;82;21611;-69
2021/03/11 08:16:18;;;;;;;10.35;5.17;;;;;;;1.41;43.07;101563.82;1709446;82;21127;-66
2021/03/11 08:18:47;;;;;;;10.00;4.33;;;;;;;1.50;42.27;101563.62;1691251;83;21198;-67
2021/03/11 08:21:38;;;;;;;8.25;4.20;;;;;;;1.58;41.90;101566.02;1704323;82;21383;-65
2021/03/11 08:24:47;;;;;;;8.95;5.00;;;;;;;1.62;41.61;101564.63;1694006;82;21286;-65
2021/03/11 08:27:38;;;;;;;8.00;4.67;;;;;;;1.66;41.06;101559.78;1686196;82;21291;-65
2021/03/11 08:30:07;;;;;;;7.80;3.58;;;;;;;1.70;40.64;101554.08;1703867;82;21196;-63
2021/03/11 08:32:51;;;;;;;8.13;3.58;;;;;;;1.73;41.04;101546.64;1699210;83;21168;-67
2021/03/11 08:35:39;;;;;;;8.20;3.72;;;;;;;1.78;40.71;101543.48;1699351;82;22183;-63
2021/03/11 08:38:34;;;;;;;7.42;3.17;;;;;;;1.83;40.63;101547.69;1700172;82;21195;-64
2021/03/11 08:41:07;;;;;;;9.40;4.03;;;;;;;1.91;40.06;101547.48;1696860;83;21175;-64
2021/03/11 08:43:42;;;;;;;8.05;3.47;;;;;;;1.96;39.94;101537.83;1662631;84;21222;-66
2021/03/11 08:46:23;;;;;;;10.85;4.45;;;;;;;2.01;39.90;101538.56;1674439;83;21224;-66
2021/03/11 08:48:58;;;;;;;7.17;3.45;;;;;;;2.01;39.89;101535.97;1677077;83;21251;-63
2021/03/11 08:51:32;;;;;;;9.05;3.30;;;;;;;2.04;39.78;101528.56;1674724;83;21179;-63
2021/03/11 08:54:08;;;;;;;6.80;3.37;;;;;;;2.10;39.76;101532.30;1682568;83;21184;-62
2021/03/11 08:56:39;;;;;;;6.23;3.37;;;;;;;2.16;39.45;101528.68;1697927;83;21421;-63
2021/03/11 08:59:15;;;;;;;8.00;3.52;;;;;;;2.16;38.96;101527.38;1675683;83;21634;-65
2021/03/11 09:01:53;;;;;;;10.25;3.67;;;;;;;2.17;39.05;101528.64;1702761;82;21525;-63
2021/03/11 09:04:37;;;;;;;6.72;2.90;;;;;;;2.19;39.10;101521.66;1700247;83;21707;-64
2021/03/11 09:07:28;;;;;;;14.18;4.08;;;;;;;2.17;39.32;101522.16;1677017;83;21274;-63
2021/03/11 09:09:57;;;;;;;7.87;3.47;;;;;;;2.24;38.88;101516.34;1659693;85;21194;-61
2021/03/11 09:12:36;;;;;;;8.08;3.35;;;;;;;2.30;39.02;101523.95;1701133;82;21663;-61
2021/03/11 09:15:08;;;;;;;6.80;3.05;;;;;;;2.40;38.42;101517.64;1694651;82;21368;-61
2021/03/11 09:17:37;;;;;;;9.03;4.05;;;;;;;2.45;38.34;101519.24;1662568;84;21216;-61
2021/03/11 09:20:10;;;;;;;5.28;2.77;;;;;;;2.53;38.47;101517.28;1701272;83;21179;-63
2021/03/11 09:22:40;;;;;;;8.23;3.60;;;;;;;2.57;38.29;101521.48;1697773;83;21258;-66
2021/03/11 09:25:23;;;;;;;6.40;3.20;;;;;;;2.62;37.95;101520.91;1701802;83;21217;-66
2021/03/11 09:27:56;;;;;;;5.78;2.92;;;;;;;2.64;37.50;101526.93;1702302;82;22932;-62
2021/03/11 09:30:29;;;;;;;7.53;3.37;;;;;;;2.67;37.62;101519.02;1703934;82;21651;-62
2021/03/11 09:32:59;;;;;;;9.68;3.20;;;;;;;2.68;37.79;101510.80;1707743;82;21168;-62
2021/03/11 09:35:27;;;;;;;9.48;3.17;;;;;;;2.79;38.67;101516.52;1679631;82;21244;-64
2021/03/11 09:38:00;;;;;;;7.53;3.50;;;;;;;2.87;37.54;101516.30;1700745;82;21140;-61
2021/03/11 09:40:39;;;;;;;5.90;3.12;;;;;;;2.92;37.53;101510.05;1703017;82;22703;-61
2021/03/11 09:43:21;;;;;;;6.40;3.20;;;;;;;2.93;37.38;101510.92;1702499;82;21208;-61
2021/03/11 09:46:03;;;;;;;8.20;3.55;;;;;;;2.98;37.26;101513.78;1696432;82;21226;-66
2021/03/11 09:48:37;;;;;;;7.33;3.20;;;;;;;3.02;37.03;101511.09;1704377;82;21204;-63
2021/03/11 09:51:12;;;;;;;6.42;2.83;;;;;;;3.05;36.93;101512.30;1704588;82;21199;-63
2021/03/11 09:53:51;;;;;;;8.83;3.77;;;;;;;3.07;37.00;101513.09;1676425;83;21211;-61
2021/03/11 09:56:41;;;;;;;7.67;3.27;;;;;;;3.08;36.82;101515.66;1697932;83;22331;-65
2021/03/11 09:59:11;;;;;;;8.20;3.80;;;;;;;3.11;36.90;101509.49;1700951;82;21266;-60
2021/03/11 10:01:42;;;;;;;6.83;3.45;;;;;;;3.13;38.40;101516.82;1703511;82;21124;-60
2021/03/11 10:04:23;;;;;;;7.42;3.58;;;;;;;3.12;37.11;101504.24;1706921;83;21295;-59
2021/03/11 10:06:54;;;;;;;8.68;3.70;;;;;;;3.13;36.83;101507.72;1697957;83;21965;-59
2021/03/11 10:09:23;;;;;;;14.70;6.50;;;;;;;3.13;36.85;101509.02;1638440;86;21255;-59
2021/03/11 10:11:53;;;;;;;10.28;4.20;;;;;;;3.19;37.06;101511.87;1697252;82;21764;-59
2021/03/11 10:14:28;;;;;;;9.40;4.40;;;;;;;3.31;36.77;101511.47;1700413;83;21239;-59
2021/03/11 10:16:59;;;;;;;6.58;2.72;;;;;;;3.41;36.73;101513.34;1700987;83;21196;-59
2021/03/11 10:19:31;;;;;;;8.43;4.17;;;;;;;3.50;36.44;101506.09;1661358;84;21247;-59
2021/03/11 10:22:03;;;;;;;9.03;4.87;;;;;;;3.58;36.31;101504.55;1698086;83;21253;-59
2021/03/11 10:24:43;;;;;;;7.10;3.62;;;;;;;3.69;36.81;101502.42;1697930;83;21627;-60
2021/03/11 10:27:24;;;;;;;5.50;2.60;;;;;;;3.80;36.33;101496.88;1638713;86;21181;-59
2021/03/11 10:30:33;;;;;;;8.73;3.35;;;;;;;3.89;35.75;101495.70;1695022;83;21232;-60
2021/03/11 10:33:03;;;;;;;5.80;2.75;;;;;;;3.89;35.44;101495.24;1672507;83;21267;-59
2021/03/11 10:35:34;;;;;;;9.35;4.70;;;;;;;3.87;35.32;101491.01;1708451;82;21151;-60
2021/03/11 10:38:25;;;;;;;18.12;8.08;;;;;;;3.85;34.79;101493.66;1710068;82;21170;-59
2021/03/11 10:40:56;;;;;;;10.82;4.37;;;;;;;3.79;35.28;101492.55;1714308;82;21243;-61
2021/03/11 10:43:25;;;;;;;7.62;3.30;;;;;;;3.80;35.13;101496.88;1663877;83;21222;-59
2021/03/11 10:45:53;;;;;;;8.35;3.37;;;;;;;3.74;34.91;101484.52;1708920;82;22962;-59
2021/03/11 10:48:20;;;;;;;7.90;2.75;;;;;;;3.71;35.11;101474.58;1711062;81;21167;-59
2021/03/11 10:50:52;;;;;;;8.50;3.05;;;;;;;3.68;35.30;101474.71;1713641;81;21208;-59
2021/03/11 10:53:20;;;;;;;8.25;3.80;;;;;;;3.73;35.25;101471.92;1711469;81;21181;-61
2021/03/11 10:55:49;;;;;;;8.68;4.08;;;;;;;3.78;35.70;101471.31;1705849;83;21211;-61
2021/03/11 10:58:27;;;;;;;6.42;2.85;;;;;;;3.84;35.50;101470.28;1711028;81;21219;-59
2021/03/11 11:13:31;;;;;;;8.08;3.80;;;;;;;5.74;32.58;101437.28;1776694;80;22796;-60
2021/03/11 11:15:59;;;;;;;6.45;3.17;;;;;;;5.93;31.98;101435.19;1747379;81;21212;-60
2021/03/11 11:18:26;;;;;;;6.28;3.70;;;;;;;5.91;31.91;101435.25;1743293;80;21243;-61
2021/03/11 11:21:05;;;;;;;10.80;3.92;;;;;;;5.87;31.85;101421.11;1838533;75;22890;-61
2021/03/11 11:23:33;;;;;;;7.95;3.55;;;;;;;5.80;31.83;101430.10;1775577;79;22162;-61
2021/03/11 11:26:01;;;;;;;8.35;3.62;;;;;;;5.69;32.01;101427.50;1800753;79;21797;-61
2021/03/11 11:28:29;;;;;;;7.55;3.00;;;;;;;5.46;32.07;101414.11;1783742;78;21620;-59
2021/03/11 11:30:57;;;;;;;6.60;2.95;;;;;;;5.46;32.07;101414.11;1791977;79;21136;-59
2021/03/11 11:33:25;;;;;;;8.18;3.90;;;;;;;5.33;32.68;101416.41;1799791;79;21180;-59
2021/03/11 11:35:52;;;;;;;10.48;4.05;;;;;;;5.25;32.47;101418.94;1776036;79;21567;-61
2021/03/11 11:38:21;;;;;;;9.50;4.15;;;;;;;5.18;32.41;101415.27;1814519;79;21182;-63
2021/03/11 11:40:48;;;;;;;8.38;3.77;;;;;;;5.17;32.34;101414.02;1776496;79;21650;-61
2021/03/11 11:43:18;;;;;;;7.30;3.02;;;;;;;5.14;32.49;101411.53;1782718;79;21199;-58
2021/03/11 11:45:45;;;;;;;9.93;3.77;;;;;;;5.16;32.50;101404.05;1794767;78;22136;-59
2021/03/11 11:48:13;;;;;;;7.78;3.47;;;;;;;5.18;32.29;101406.60;1802732;79;21143;-58
2021/03/11 11:50:42;;;;;;;6.08;2.72;;;;;;;5.23;31.25;101395.52;1791970;79;21202;-58
2021/03/11 11:53:10;;;;;;;9.53;3.22;;;;;;;5.21;30.23;101396.01;1801287;78;21116;-59
2021/03/11 11:55:37;;;;;;;6.50;3.00;;;;;;;5.16;30.42;101403.18;1791165;79;21156;-57
2021/03/11 11:58:06;;;;;;;6.67;3.20;;;;;;;5.15;30.12;101406.72;1783225;78;21155;-57